LIMW/AOT METAR and TAF weather

Enter ICAO airport designator
Station Type Date Time Source
LIMW METAR 2019/08/26 08:20 UTC NOAA

LIMW 260820Z AUTO VRB02KT 9999 NCD 23/13 Q1021


Station Type Date Time Source
LIMW Decoded METAR 2019/08/26 08:20 UTC NOAA

Station name not available
Aug 26, 2019 - 04:20 AM EDT / 2019.08.26 0820 UTC
Wind: Variable at 2 MPH (2 KT):0
Visibility: greater than 7 mile(s):0
Temperature: 73 F (23 C)
Dew Point: 55 F (13 C)
Relative Humidity: 53%
Pressure (altimeter): 30.15 in. Hg (1021 hPa)
ob: LIMW 260820Z AUTO VRB02KT 9999 NCD 23/13 Q1021
cycle: 8

Station Type Date Time Source
LIMW TAF UTC NOAA

Error!

Example: see airport list